Latest Weather Observations for Warburto Point

IDS60801

Issued at 1:05 am CST Saturday 19 April 2014 (issued every 30 minutes, with the page automatically refreshed every 10 minutes)

About weather observations | Map of weather stations | Latest weather observations for SA | Other Formats
Station Details ID: 022053 Name: WARBURTO POINT Lat: -34.00 Lon: 137.53 Height: 1.0 m
Data from the previous 72 hours. | See also: Recent months for locations in South Australia
Date/Time
CST
Temp
°C
App
Temp
°C
Dew
Point
Rel
Hum
%
Delta-T
°C
Wind Press
QNH
hPa
Press
MSL
hPa
Rain
since 9 am
mm
Dir
 
Spd
km/h
Gust
km/h
Spd
kts
Gust
kts
19/01:00am - - - - - E 17 19 9 10 - - -
19/12:30am - - - - - E 17 19 9 10 - - -
19/12:00am - - - - - ESE 17 19 9 10 - - -
 
Date/Time
CST
Temp
°C
App
Temp
°C
Dew
Point
Rel
Hum
%
Delta-T
°C
Wind Press
QNH
hPa
Press
MSL
hPa
Rain
since 9 am
mm
Dir
 
Spd
km/h
Gust
km/h
Spd
kts
Gust
kts
18/11:30pm - - - - - ESE 17 20 9 11 - - -
18/11:00pm - - - - - ESE 15 15 8 8 - - -
18/10:30pm - - - - - ESE 13 17 7 9 - - -
18/10:00pm - - - - - E 13 13 7 7 - - -
18/09:30pm - - - - - ESE 11 13 6 7 - - -
18/09:00pm - - - - - ESE 9 11 5 6 - - -
18/08:30pm - - - - - ESE 11 13 6 7 - - -
18/08:00pm - - - - - ESE 13 17 7 9 - - -
18/07:30pm - - - - - SE 15 20 8 11 - - -
18/07:00pm - - - - - SE 17 20 9 11 - - -
18/06:30pm - - - - - SE 20 26 11 14 - - -
18/06:00pm - - - - - S 24 30 13 16 - - -
18/05:30pm - - - - - S 26 32 14 17 - - -
18/05:00pm - - - - - S 26 32 14 17 - - -
18/04:30pm - - - - - S 26 33 14 18 - - -
18/04:00pm - - - - - S 28 32 15 17 - - -
18/03:30pm - - - - - SSW 26 32 14 17 - - -
18/03:00pm - - - - - SSW 26 33 14 18 - - -
18/02:30pm - - - - - SSW 28 33 15 18 - - -
18/02:00pm - - - - - SSW 26 33 14 18 - - -
18/01:30pm - - - - - SSW 24 32 13 17 - - -
18/01:00pm - - - - - SSW 24 30 13 16 - - -
18/12:30pm - - - - - SSW 26 33 14 18 - - -
18/12:00pm - - - - - SSW 24 30 13 16 - - -
18/11:30am - - - - - SSW 24 30 13 16 - - -
18/11:00am - - - - - SSW 26 32 14 17 - - -
18/10:30am - - - - - S 28 33 15 18 - - -
18/10:00am - - - - - S 28 33 15 18 - - -
18/09:30am - - - - - SSW 26 32 14 17 - - -
18/09:00am - - - - - S 30 37 16 20 - - -
18/08:30am - - - - - SW 24 32 13 17 - - -
18/08:00am - - - - - WSW 22 32 12 17 - - -
18/07:30am - - - - - WSW 20 28 11 15 - - -
18/07:00am - - - - - WSW 17 24 9 13 - - -
18/06:30am - - - - - SW 20 26 11 14 - - -
18/06:00am - - - - - SW 22 28 12 15 - - -
18/05:30am - - - - - SW 24 30 13 16 - - -
18/05:00am - - - - - SW 22 28 12 15 - - -
18/04:30am - - - - - WSW 22 28 12 15 - - -
18/04:00am - - - - - WSW 20 28 11 15 - - -
18/03:30am - - - - - WSW 20 30 11 16 - - -
18/03:00am - - - - - WSW 28 35 15 19 - - -
18/02:30am - - - - - WSW 24 30 13 16 - - -
18/02:00am - - - - - W 20 28 11 15 - - -
18/01:30am - - - - - W 22 28 12 15 - - -
18/01:00am - - - - - WSW 26 32 14 17 - - -
18/12:30am - - - - - WSW 22 30 12 16 - - -
18/12:00am - - - - - WSW 22 28 12 15 - - -
 
Date/Time
CST
Temp
°C
App
Temp
°C
Dew
Point
Rel
Hum
%
Delta-T
°C
Wind Press
QNH
hPa
Press
MSL
hPa
Rain
since 9 am
mm
Dir
 
Spd
km/h
Gust
km/h
Spd
kts
Gust
kts
17/11:30pm - - - - - W 24 32 13 17 - - -
17/11:00pm - - - - - W 24 30 13 16 - - -
17/10:30pm - - - - - WSW 20 30 11 16 - - -
17/10:00pm - - - - - WSW 20 26 11 14 - - -
17/09:30pm - - - - - WSW 15 20 8 11 - - -
17/09:00pm - - - - - SW 7 11 4 6 - - -
17/08:30pm - - - - - CALM 0 0 0 0 - - -
17/08:00pm - - - - - CALM 0 0 0 0 - - -
17/07:30pm - - - - - CALM 0 0 0 0 - - -
17/07:00pm - - - - - WSW 4 6 2 3 - - -
17/06:30pm - - - - - W 7 7 4 4 - - -
17/06:00pm - - - - - W 6 7 3 4 - - -
17/05:30pm - - - - - WNW 7 7 4 4 - - -
17/05:00pm - - - - - W 6 7 3 4 - - -
17/04:30pm - - - - - WNW 6 7 3 4 - - -
17/04:00pm - - - - - WSW 6 9 3 5 - - -
17/03:30pm - - - - - SSW 7 9 4 5 - - -
17/03:00pm - - - - - S 9 11 5 6 - - -
17/02:30pm - - - - - S 9 13 5 7 - - -
17/02:00pm - - - - - NW 7 9 4 5 - - -
17/01:30pm - - - - - NW 11 13 6 7 - - -
17/01:00pm - - - - - WNW 13 15 7 8 - - -
17/12:30pm - - - - - NW 13 15 7 8 - - -
17/12:00pm - - - - - NW 13 15 7 8 - - -
17/11:30am - - - - - NW 13 15 7 8 - - -
17/11:00am - - - - - NNW 11 13 6 7 - - -
17/10:30am - - - - - N 13 15 7 8 - - -
17/10:00am - - - - - N 13 15 7 8 - - -
17/09:30am - - - - - NNE 13 17 7 9 - - -
17/09:00am - - - - - ENE 13 17 7 9 - - -
17/08:30am - - - - - E 9 15 5 8 - - -
17/08:00am - - - - - E 9 13 5 7 - - -
17/07:30am - - - - - ENE 9 11 5 6 - - -
17/07:00am - - - - - E 11 13 6 7 - - -
17/06:30am - - - - - ESE 13 15 7 8 - - -
17/06:00am - - - - - SE 11 13 6 7 - - -
17/05:30am - - - - - SE 15 15 8 8 - - -
17/05:00am - - - - - SE 11 11 6 6 - - -
17/04:30am - - - - - ESE 11 13 6 7 - - -
17/04:00am - - - - - ESE 13 13 7 7 - - -
17/03:30am - - - - - ESE 11 11 6 6 - - -
17/03:00am - - - - - E 13 13 7 7 - - -
17/02:30am - - - - - SE 11 13 6 7 - - -
17/02:00am - - - - - SE 11 13 6 7 - - -
17/01:30am - - - - - SE 11 11 6 6 - - -
17/01:00am - - - - - SE 9 11 5 6 - - -
17/12:30am - - - - - SSE 13 15 7 8 - - -
17/12:00am - - - - - S 13 15 7 8 - - -
 
Date/Time
CST
Temp
°C
App
Temp
°C
Dew
Point
Rel
Hum
%
Delta-T
°C
Wind Press
QNH
hPa
Press
MSL
hPa
Rain
since 9 am
mm
Dir
 
Spd
km/h
Gust
km/h
Spd
kts
Gust
kts
16/11:30pm - - - - - S 13 13 7 7 - - -
16/11:00pm - - - - - SSE 11 13 6 7 - - -
16/10:30pm - - - - - SSE 13 15 7 8 - - -
16/10:00pm - - - - - S 13 15 7 8 - - -
16/09:30pm - - - - - S 11 15 6 8 - - -
16/09:00pm - - - - - S 13 17 7 9 - - -
16/08:30pm - - - - - SSW 15 20 8 11 - - -
16/08:00pm - - - - - SSW 11 13 6 7 - - -
16/07:30pm - - - - - SW 7 9 4 5 - - -
16/07:00pm - - - - - SW 9 11 5 6 - - -
16/06:30pm - - - - - SSW 11 13 6 7 - - -
16/06:00pm - - - - - SSW 17 19 9 10 - - -
16/05:30pm - - - - - WSW 13 15 7 8 - - -
16/05:00pm - - - - - SSW 9 11 5 6 - - -
16/04:30pm - - - - - S 7 9 4 5 - - -
16/04:00pm - - - - - S 9 11 5 6 - - -
16/03:30pm - - - - - S 9 13 5 7 - - -
16/03:00pm - - - - - S 11 15 6 8 - - -
16/02:30pm - - - - - SSW 13 15 7 8 - - -
16/02:00pm - - - - - SW 9 13 5 7 - - -
16/01:30pm - - - - - NNW 9 11 5 6 - - -
16/01:00pm - - - - - NNW 11 13 6 7 - - -
16/12:30pm - - - - - NNW 13 15 7 8 - - -
16/12:00pm - - - - - N 13 17 7 9 - - -
16/11:30am - - - - - NW 13 17 7 9 - - -
16/11:00am - - - - - WNW 13 15 7 8 - - -
16/10:30am - - - - - WNW 13 17 7 9 - - -
16/10:00am - - - - - NW 15 17 8 9 - - -
16/09:30am - - - - - N 15 20 8 11 - - -
16/09:00am - - - - - NNE 15 19 8 10 - - -
16/08:30am - - - - - NE 13 17 7 9 - - -
16/08:00am - - - - - ENE 11 15 6 8 - - -
16/07:30am - - - - - ENE 15 17 8 9 - - -
16/07:00am - - - - - ENE 19 20 10 11 - - -
16/06:30am - - - - - E 11 13 6 7 - - -
16/06:00am - - - - - ENE 11 11 6 6 - - -
16/05:30am - - - - - ENE 9 13 5 7 - - -
16/05:00am - - - - - ENE 17 19 9 10 - - -
16/04:30am - - - - - E 17 20 9 11 - - -
16/04:00am - - - - - E 17 19 9 10 - - -
16/03:30am - - - - - E 17 20 9 11 - - -
16/03:00am - - - - - E 15 17 8 9 - - -
16/02:30am - - - - - E 15 17 8 9 - - -
16/02:00am - - - - - E 6 7 3 4 - - -
16/01:30am - - - - - ESE 7 9 4 5 - - -

Other Formats:

Comma delimited format used in spreadsheet applications
http://www.bom.gov.au/fwo/IDS60801/IDS60801.94666.axf

JavaScript Object Notation format (JSON) in row-major order
http://www.bom.gov.au/fwo/IDS60801/IDS60801.94666.json